Time;durP1;ratioP1;P1;durP2;ratioP2;P2;SDS_P1;SDS_P2;PMS_P1;PMS_P2;Temp;Humidity;BMP_temperature;BMP_pressure;BME280_temperature;BME280_humidity;BME280_pressure;Samples;Min_cycle;Max_cycle;Signal;HPM_P1;HPM_P2
2021/06/03 00:02:04;;;;;;;1.47;0.90;;;;;;;13.41;100.00;99388.00;1697981;84;21319;-61
2021/06/03 00:04:31;;;;;;;1.47;0.77;;;;;;;13.45;100.00;99393.08;1699714;82;21039;-61
2021/06/03 00:06:57;;;;;;;1.47;0.80;;;;;;;13.39;100.00;99388.23;1693921;83;21826;-61
2021/06/03 00:09:25;;;;;;;1.63;1.00;;;;;;;13.35;100.00;99389.19;1690482;84;20999;-72
2021/06/03 00:11:51;;;;;;;2.83;0.80;;;;;;;13.38;100.00;99387.45;1692059;83;20994;-65
2021/06/03 00:14:20;;;;;;;6.20;1.57;;;;;;;13.39;100.00;99400.02;1689424;83;22515;-61
2021/06/03 00:16:47;;;;;;;2.30;1.00;;;;;;;13.38;100.00;99404.98;1692844;84;21067;-61
2021/06/03 00:19:14;;;;;;;1.70;1.00;;;;;;;13.44;100.00;99401.97;1693695;83;23193;-62
2021/06/03 00:21:42;;;;;;;1.90;0.90;;;;;;;13.46;100.00;99398.63;1687754;83;21114;-74
2021/06/03 00:24:08;;;;;;;2.57;1.20;;;;;;;13.52;100.00;99405.58;1692851;84;21081;-61
2021/06/03 00:26:35;;;;;;;1.73;1.03;;;;;;;13.52;100.00;99402.95;1690615;84;21474;-62
2021/06/03 00:29:03;;;;;;;3.40;1.07;;;;;;;13.52;100.00;99406.37;1693202;83;21689;-62
2021/06/03 00:31:32;;;;;;;2.47;1.23;;;;;;;13.51;100.00;99406.09;1687296;84;21819;-71
2021/06/03 00:34:00;;;;;;;3.47;1.17;;;;;;;13.53;100.00;99418.97;1692339;83;22407;-69
2021/06/03 00:36:26;;;;;;;1.73;0.80;;;;;;;13.52;100.00;99427.31;1691307;83;21007;-64
2021/06/03 00:38:53;;;;;;;4.00;1.53;;;;;;;13.57;100.00;99427.98;1693219;84;21007;-63
2021/06/03 00:41:21;;;;;;;1.30;0.90;;;;;;;13.58;100.00;99426.44;1690977;84;20947;-63
2021/06/03 00:43:48;;;;;;;2.43;0.77;;;;;;;13.58;100.00;99429.57;1693012;83;21227;-76
2021/06/03 00:46:16;;;;;;;1.10;0.70;;;;;;;13.62;100.00;99428.10;1690894;83;21110;-64
2021/06/03 00:48:42;;;;;;;1.07;0.60;;;;;;;13.63;100.00;99432.31;1694438;83;20995;-64
2021/06/03 00:51:09;;;;;;;2.00;0.80;;;;;;;13.66;100.00;99421.91;1689366;83;21004;-63
2021/06/03 00:53:38;;;;;;;1.63;0.60;;;;;;;13.67;100.00;99429.53;1693383;84;20943;-63
2021/06/03 00:56:05;;;;;;;1.13;0.70;;;;;;;13.67;100.00;99432.15;1686103;83;21174;-68
2021/06/03 00:58:38;;;;;;;1.80;0.77;;;;;;;13.61;100.00;99423.89;1688377;83;21014;-63
2021/06/03 01:01:03;;;;;;;1.13;0.43;;;;;;;13.61;100.00;99433.86;1687516;83;20990;-63
2021/06/03 01:03:32;;;;;;;3.63;0.50;;;;;;;13.66;100.00;99438.41;1693460;83;21089;-63
2021/06/03 01:06:06;;;;;;;1.40;0.50;;;;;;;13.66;100.00;99444.96;1691827;84;21040;-74
2021/06/03 01:08:49;;;;;;;1.57;0.70;;;;;;;13.74;100.00;99448.57;1694923;84;21163;-62
2021/06/03 01:11:20;;;;;;;0.70;0.40;;;;;;;13.71;100.00;99447.70;1693641;83;21058;-63
2021/06/03 01:14:26;;;;;;;1.83;0.70;;;;;;;13.75;100.00;99450.19;1694588;84;21062;-65
2021/06/03 01:16:57;;;;;;;1.27;0.40;;;;;;;13.82;100.00;99452.18;1691641;83;21057;-65
2021/06/03 01:19:37;;;;;;;1.23;0.60;;;;;;;13.85;100.00;99462.22;1672234;84;21268;-65
2021/06/03 01:22:39;;;;;;;;;;;;;;;13.88;100.00;99459.16;1678188;84;21005;-64
2021/06/03 01:25:07;;;;;;;1.40;0.60;;;;;;;13.94;100.00;99464.52;1690092;84;20184;-64
2021/06/03 01:27:35;;;;;;;1.57;0.67;;;;;;;14.01;100.00;99477.01;1696183;83;20976;-63
2021/06/03 01:30:21;;;;;;;1.80;0.70;;;;;;;14.04;100.00;99476.56;1696264;84;20940;-63
2021/06/03 01:32:52;;;;;;;1.77;0.40;;;;;;;14.12;100.00;99481.48;1689670;84;21145;-63
2021/06/03 01:35:24;;;;;;;0.70;0.40;;;;;;;14.14;100.00;99479.96;1696229;83;21188;-62
2021/06/03 01:37:51;;;;;;;1.47;0.50;;;;;;;14.18;100.00;99484.52;1692090;84;21093;-62
2021/06/03 01:40:19;;;;;;;1.60;0.70;;;;;;;14.27;100.00;99489.70;1669696;84;21461;-63
2021/06/03 01:42:45;;;;;;;1.50;0.70;;;;;;;14.25;100.00;99492.29;1693348;84;21042;-62
2021/06/03 01:45:14;;;;;;;0.90;0.50;;;;;;;14.23;100.00;99495.63;1695585;84;20991;-63
2021/06/03 01:47:42;;;;;;;1.07;0.50;;;;;;;14.20;100.00;99496.08;1694203;84;21096;-63
2021/06/03 01:50:11;;;;;;;2.27;0.77;;;;;;;14.19;100.00;99496.59;1691688;84;20948;-70
2021/06/03 01:52:40;;;;;;;2.83;1.17;;;;;;;14.18;100.00;99499.45;1693848;84;22402;-64
2021/06/03 01:55:10;;;;;;;2.00;0.80;;;;;;;14.17;100.00;99505.70;1692047;83;21229;-62
2021/06/03 01:57:37;;;;;;;1.40;0.90;;;;;;;14.12;100.00;99511.10;1694284;84;20900;-61
2021/06/03 02:00:12;;;;;;;2.30;1.20;;;;;;;14.12;100.00;99520.79;1691646;84;22350;-64
2021/06/03 02:02:51;;;;;;;2.30;1.50;;;;;;;14.10;100.00;99525.47;1693480;83;20989;-63
2021/06/03 02:05:20;;;;;;;3.00;1.50;;;;;;;14.06;100.00;99529.56;1693540;83;20952;-62
2021/06/03 02:07:47;;;;;;;3.87;2.27;;;;;;;14.03;100.00;99520.31;1695263;83;20984;-72
2021/06/03 02:10:15;;;;;;;4.00;2.43;;;;;;;14.00;100.00;99530.44;1691731;84;21813;-62
2021/06/03 02:13:00;;;;;;;6.33;2.73;;;;;;;13.82;100.00;99522.11;1696303;83;20979;-62
2021/06/03 02:15:30;;;;;;;5.37;3.50;;;;;;;13.81;100.00;99530.48;1698128;83;20970;-71
2021/06/03 02:17:57;;;;;;;4.57;3.47;;;;;;;13.78;100.00;99529.61;1700940;83;21472;-63
2021/06/03 02:20:27;;;;;;;8.10;5.70;;;;;;;13.83;100.00;99527.15;1694251;84;21082;-64
2021/06/03 02:22:55;;;;;;;7.37;5.20;;;;;;;13.79;100.00;99530.44;1696437;83;21517;-63
2021/06/03 02:25:26;;;;;;;9.30;7.00;;;;;;;13.79;100.00;99531.23;1689568;83;21164;-63
2021/06/03 02:27:53;;;;;;;11.95;8.48;;;;;;;13.81;100.00;99523.94;1695908;84;21065;-63
2021/06/03 02:30:20;;;;;;;13.30;8.97;;;;;;;13.77;100.00;99531.16;1700330;83;20999;-62
2021/06/03 02:32:49;;;;;;;14.83;10.33;;;;;;;13.77;100.00;99536.39;1693779;84;21039;-61
2021/06/03 02:35:16;;;;;;;18.10;12.33;;;;;;;13.82;100.00;99539.94;1652345;84;20883;-74
2021/06/03 02:37:45;;;;;;;16.27;11.30;;;;;;;13.72;100.00;99544.92;1695669;84;21177;-61
2021/06/03 02:40:22;;;;;;;12.03;9.33;;;;;;;13.70;100.00;99534.37;1692676;84;20998;-61
2021/06/03 02:42:50;;;;;;;13.03;9.27;;;;;;;13.77;100.00;99550.80;1695804;84;20861;-60
2021/06/03 02:45:28;;;;;;;13.23;9.33;;;;;;;13.83;100.00;99542.86;1694210;83;20984;-72
2021/06/03 02:47:56;;;;;;;14.47;10.87;;;;;;;13.81;100.00;99552.75;1695760;84;22322;-61
2021/06/03 02:50:24;;;;;;;13.70;10.63;;;;;;;13.78;100.00;99561.56;1694276;84;21102;-63
2021/06/03 02:52:52;;;;;;;18.03;13.87;;;;;;;13.83;100.00;99568.27;1695532;82;20991;-62
2021/06/03 02:55:22;;;;;;;14.67;10.90;;;;;;;13.81;100.00;99577.64;1689093;82;20891;-62
2021/06/03 02:57:50;;;;;;;14.87;11.13;;;;;;;13.77;100.00;99572.55;1695418;83;21062;-59
2021/06/03 03:00:22;;;;;;;13.93;10.97;;;;;;;13.75;100.00;99582.47;1688423;83;20942;-73
2021/06/03 03:02:49;;;;;;;11.53;9.70;;;;;;;13.78;100.00;99585.14;1662816;84;21189;-62
2021/06/03 03:05:16;;;;;;;11.30;9.20;;;;;;;13.76;100.00;99585.37;1658948;83;20960;-61
2021/06/03 03:07:43;;;;;;;11.00;9.10;;;;;;;13.77;100.00;99600.05;1670996;83;21089;-61
2021/06/03 03:10:18;;;;;;;11.73;7.87;;;;;;;13.83;100.00;99604.42;1662668;83;21596;-62
2021/06/03 03:12:45;;;;;;;7.93;6.70;;;;;;;13.84;100.00;99604.70;1657449;85;21066;-62
2021/06/03 03:15:14;;;;;;;7.70;6.47;;;;;;;13.85;100.00;99610.23;1663008;84;21159;-74
2021/06/03 03:17:41;;;;;;;6.00;5.30;;;;;;;13.82;100.00;99609.88;1665933;83;21128;-61
2021/06/03 03:20:11;;;;;;;7.20;6.23;;;;;;;13.81;100.00;99611.69;1661125;83;21573;-62
2021/06/03 03:22:40;;;;;;;7.97;6.37;;;;;;;13.79;100.00;99615.57;1665987;83;21450;-62
2021/06/03 03:25:09;;;;;;;10.40;7.97;;;;;;;13.84;100.00;99619.63;1663643;84;21471;-62
2021/06/03 03:27:37;;;;;;;10.03;8.03;;;;;;;13.85;100.00;99623.84;1682156;83;21143;-62
2021/06/03 03:30:06;;;;;;;9.60;7.37;;;;;;;13.87;100.00;99630.98;1671848;84;21135;-62
2021/06/03 03:32:33;;;;;;;8.80;7.70;;;;;;;13.82;100.00;99635.55;1667090;84;21002;-65
2021/06/03 03:35:00;;;;;;;8.40;6.80;;;;;;;13.80;100.00;99641.53;1685082;84;21081;-74
2021/06/03 03:37:29;;;;;;;7.40;6.03;;;;;;;13.81;100.00;99642.33;1648776;85;21126;-63
2021/06/03 03:39:58;;;;;;;6.93;5.30;;;;;;;13.78;100.00;99644.88;1670591;84;21216;-62
2021/06/03 03:42:24;;;;;;;7.10;4.70;;;;;;;13.83;100.00;99641.11;1668604;85;21480;-63
2021/06/03 03:44:52;;;;;;;5.87;4.67;;;;;;;13.83;100.00;99648.97;1669805;85;21581;-63
2021/06/03 03:47:18;;;;;;;5.20;3.87;;;;;;;13.87;100.00;99652.75;1667309;85;21493;-72
2021/06/03 03:49:46;;;;;;;5.10;4.20;;;;;;;13.88;100.00;99647.78;1669807;85;22135;-66
2021/06/03 03:52:14;;;;;;;5.87;5.00;;;;;;;13.87;100.00;99653.26;1668018;85;21158;-65
2021/06/03 03:54:43;;;;;;;7.10;5.27;;;;;;;13.91;100.00;99653.62;1669645;85;21493;-62
2021/06/03 03:57:10;;;;;;;6.07;4.87;;;;;;;13.88;100.00;99651.72;1667398;85;21474;-74
2021/06/03 03:59:37;;;;;;;5.93;4.60;;;;;;;13.91;100.00;99661.48;1669204;85;21026;-62
2021/06/03 04:02:05;;;;;;;6.67;4.90;;;;;;;13.96;100.00;99657.69;1671069;85;21015;-65
2021/06/03 04:04:33;;;;;;;8.70;5.17;;;;;;;14.06;100.00;99659.28;1679416;84;21329;-62
2021/06/03 04:06:59;;;;;;;6.13;4.83;;;;;;;14.14;100.00;99660.30;1686597;83;20933;-72
2021/06/03 04:09:29;;;;;;;6.53;4.90;;;;;;;14.19;100.00;99662.24;1670251;84;20984;-61
2021/06/03 04:11:56;;;;;;;7.07;5.07;;;;;;;14.20;100.00;99667.25;1672459;85;21053;-62
2021/06/03 04:14:23;;;;;;;6.23;4.83;;;;;;;14.20;100.00;99672.50;1671638;85;21071;-60
2021/06/03 04:16:50;;;;;;;8.27;4.93;;;;;;;14.26;100.00;99668.20;1677220;84;21154;-60
2021/06/03 04:19:19;;;;;;;6.07;5.17;;;;;;;14.29;100.00;99671.19;1664784;85;21768;-75
2021/06/03 04:21:46;;;;;;;6.57;5.17;;;;;;;14.44;100.00;99673.93;1686927;83;21177;-62
2021/06/03 04:24:14;;;;;;;7.27;5.43;;;;;;;14.54;100.00;99675.52;1685159;83;21034;-65
2021/06/03 04:26:40;;;;;;;6.33;5.30;;;;;;;14.62;100.00;99682.27;1698673;83;21403;-64
2021/06/03 04:29:07;;;;;;;6.30;5.13;;;;;;;14.73;100.00;99682.30;1687337;83;21161;-71
2021/06/03 04:31:33;;;;;;;6.57;5.47;;;;;;;14.79;100.00;99685.88;1697555;83;21130;-64
2021/06/03 04:34:00;;;;;;;6.70;5.70;;;;;;;14.84;100.00;99693.34;1686771;83;20944;-66
2021/06/03 04:36:27;;;;;;;8.77;6.57;;;;;;;14.93;100.00;99691.73;1694387;83;21575;-64
2021/06/03 04:38:53;;;;;;;6.23;4.93;;;;;;;14.92;100.00;99694.84;1688719;83;21017;-65
2021/06/03 04:41:20;;;;;;;6.87;5.50;;;;;;;14.89;100.00;99701.88;1693850;83;21142;-74
2021/06/03 04:43:48;;;;;;;8.13;5.97;;;;;;;14.95;100.00;99700.16;1693452;83;21081;-65
2021/06/03 04:46:15;;;;;;;6.03;5.43;;;;;;;14.97;100.00;99708.62;1697633;83;21909;-66
2021/06/03 04:48:41;;;;;;;9.37;6.97;;;;;;;15.04;100.00;99711.95;1695130;83;21020;-64
2021/06/03 04:51:08;;;;;;;8.70;6.97;;;;;;;15.02;100.00;99711.37;1690449;83;20929;-65
2021/06/03 04:56:18;;;;;;;8.63;7.77;;;;;;;15.09;100.00;99714.70;1696366;82;20903;-64
2021/06/03 04:58:44;;;;;;;10.47;8.00;;;;;;;15.15;100.00;99707.73;1699273;82;21081;-66
2021/06/03 05:01:11;;;;;;;8.37;7.20;;;;;;;15.21;100.00;99706.31;1698727;82;20911;-70
2021/06/03 05:03:39;;;;;;;7.87;7.07;;;;;;;15.28;100.00;99707.53;1697101;82;21073;-66
2021/06/03 05:06:06;;;;;;;7.93;7.13;;;;;;;15.31;100.00;99715.75;1698857;82;21160;-66
2021/06/03 05:08:34;;;;;;;8.73;7.10;;;;;;;15.24;100.00;99713.75;1677160;83;21044;-68
2021/06/03 05:11:00;;;;;;;8.97;6.90;;;;;;;15.25;100.00;99717.97;1695902;83;21062;-69
2021/06/03 05:13:30;;;;;;;8.50;7.50;;;;;;;15.39;100.00;99716.45;1664659;85;21102;-69
2021/06/03 05:15:58;;;;;;;9.40;7.77;;;;;;;15.35;100.00;99712.69;1689219;83;21536;-68
2021/06/03 05:18:26;;;;;;;10.13;7.77;;;;;;;15.39;100.00;99725.64;1706658;81;21154;-68
2021/06/03 05:20:53;;;;;;;9.37;6.80;;;;;;;15.43;100.00;99725.47;1683372;83;21590;-67
2021/06/03 05:23:20;;;;;;;8.27;6.73;;;;;;;15.57;100.00;99732.11;1681512;83;21623;-67
2021/06/03 05:25:47;;;;;;;8.33;6.77;;;;;;;15.56;100.00;99733.11;1694917;83;20929;-69
2021/06/03 05:28:15;;;;;;;8.10;7.30;;;;;;;15.58;100.00;99729.23;1708202;83;22092;-68
2021/06/03 05:30:41;;;;;;;9.10;7.70;;;;;;;15.62;100.00;99738.78;1698135;83;21763;-68
2021/06/03 05:33:09;;;;;;;11.17;7.13;;;;;;;15.63;100.00;99746.94;1700148;83;21517;-68
2021/06/03 05:35:37;;;;;;;8.47;7.07;;;;;;;15.68;100.00;99743.16;1702795;82;21001;-69
2021/06/03 05:38:05;;;;;;;17.77;7.47;;;;;;;15.74;100.00;99746.69;1702068;84;21057;-68
2021/06/03 05:40:33;;;;;;;9.23;8.33;;;;;;;15.79;100.00;99748.91;1697179;82;21179;-68
2021/06/03 05:43:00;;;;;;;9.00;8.10;;;;;;;15.87;100.00;99747.75;1671197;84;21143;-69
2021/06/03 05:45:28;;;;;;;10.50;8.63;;;;;;;15.92;100.00;99754.45;1693975;84;21002;-68
2021/06/03 05:47:55;;;;;;;9.37;8.37;;;;;;;16.01;100.00;99756.20;1697056;82;22391;-69
2021/06/03 05:50:23;;;;;;;9.50;8.00;;;;;;;16.07;100.00;99761.08;1696759;82;21501;-69
2021/06/03 05:52:51;;;;;;;6.63;5.80;;;;;;;16.13;100.00;99760.13;1685927;83;21600;-68
2021/06/03 05:55:18;;;;;;;6.20;4.63;;;;;;;16.12;100.00;99763.28;1697491;83;21823;-69
2021/06/03 05:57:45;;;;;;;6.97;4.67;;;;;;;16.10;100.00;99768.48;1690275;82;21607;-69
2021/06/03 06:00:17;;;;;;;6.53;5.23;;;;;;;16.04;100.00;99769.69;1691033;83;20957;-69
2021/06/03 06:02:57;;;;;;;7.58;6.00;;;;;;;16.05;100.00;99773.11;1673413;85;21051;-69
2021/06/03 06:08:03;;;;;;;6.27;5.03;;;;;;;16.02;100.00;99777.03;1695206;82;21117;-70
2021/06/03 06:10:30;;;;;;;6.53;5.23;;;;;;;16.07;100.00;99786.05;1681303;84;20991;-72
2021/06/03 06:12:57;;;;;;;6.83;5.07;;;;;;;16.07;100.00;99784.22;1692336;82;20961;-67
2021/06/03 06:15:25;;;;;;;7.47;5.53;;;;;;;16.10;100.00;99788.19;1710885;82;21093;-67
2021/06/03 06:17:53;;;;;;;10.00;5.63;;;;;;;16.14;100.00;99791.47;1702546;82;21013;-66
2021/06/03 06:20:20;;;;;;;6.20;4.90;;;;;;;16.27;100.00;99796.47;1703154;82;21144;-67
2021/06/03 06:22:49;;;;;;;7.70;5.60;;;;;;;16.40;100.00;99799.87;1692061;82;21033;-72
2021/06/03 06:25:18;;;;;;;7.40;5.20;;;;;;;16.40;100.00;99805.13;1674159;85;21556;-66
2021/06/03 06:27:45;;;;;;;6.43;4.90;;;;;;;16.41;100.00;99801.48;1686422;82;21013;-68
2021/06/03 06:30:14;;;;;;;5.70;4.37;;;;;;;16.43;100.00;99805.47;1708143;82;21071;-65
2021/06/03 06:32:41;;;;;;;5.73;4.20;;;;;;;16.46;100.00;99804.21;1689511;82;21834;-71
2021/06/03 06:35:09;;;;;;;5.63;4.77;;;;;;;16.39;100.00;99811.43;1694044;83;21016;-68
2021/06/03 06:37:36;;;;;;;7.57;4.77;;;;;;;16.36;100.00;99808.73;1687081;82;20954;-70
2021/06/03 06:40:04;;;;;;;7.47;5.17;;;;;;;16.36;100.00;99811.37;1688952;82;21049;-69
2021/06/03 06:42:33;;;;;;;6.03;4.87;;;;;;;16.41;100.00;99809.38;1676109;84;21521;-71
2021/06/03 06:44:59;;;;;;;7.60;5.73;;;;;;;16.40;100.00;99814.33;1684771;84;21025;-69
2021/06/03 06:47:26;;;;;;;6.50;5.50;;;;;;;16.45;100.00;99826.30;1683712;82;21144;-72
2021/06/03 06:49:53;;;;;;;7.10;5.60;;;;;;;16.48;100.00;99824.00;1695032;82;21610;-66
2021/06/03 06:52:19;;;;;;;6.23;4.60;;;;;;;16.39;100.00;99827.21;1681962;82;21072;-72
2021/06/03 06:54:47;;;;;;;6.73;4.90;;;;;;;16.39;100.00;99832.47;1687358;82;21014;-66
2021/06/03 06:57:14;;;;;;;7.30;5.63;;;;;;;16.41;100.00;99833.05;1681453;82;21408;-65
2021/06/03 06:59:40;;;;;;;7.57;6.43;;;;;;;16.40;100.00;99834.06;1682116;82;21032;-72
2021/06/03 07:02:07;;;;;;;8.47;5.47;;;;;;;16.40;100.00;99835.38;1683236;82;21074;-65
2021/06/03 07:04:34;;;;;;;7.70;5.70;;;;;;;16.43;100.00;99838.88;1682365;82;21103;-72
2021/06/03 07:07:01;;;;;;;6.30;5.60;;;;;;;16.40;100.00;99840.16;1695947;82;20941;-66
2021/06/03 07:09:29;;;;;;;6.17;4.83;;;;;;;16.40;100.00;99845.91;1685551;82;21043;-65
2021/06/03 07:11:55;;;;;;;6.30;4.93;;;;;;;16.40;100.00;99848.53;1684953;82;20993;-67
2021/06/03 07:14:22;;;;;;;9.03;7.40;;;;;;;16.46;100.00;99847.62;1683679;82;21019;-67
2021/06/03 07:16:48;;;;;;;8.63;7.73;;;;;;;16.45;100.00;99855.23;1697756;82;20926;-72
2021/06/03 07:19:15;;;;;;;8.93;6.40;;;;;;;16.38;100.00;99853.24;1664613;84;20943;-66
2021/06/03 07:21:41;;;;;;;7.50;6.33;;;;;;;16.28;100.00;99858.55;1688013;82;21544;-68
2021/06/03 07:24:10;;;;;;;8.30;5.57;;;;;;;16.26;100.00;99859.31;1705473;82;21125;-67
2021/06/03 07:26:37;;;;;;;7.73;5.97;;;;;;;16.28;100.00;99863.02;1703167;82;22410;-67
2021/06/03 07:29:05;;;;;;;7.53;5.97;;;;;;;16.33;100.00;99868.41;1691528;82;21057;-71
2021/06/03 07:31:34;;;;;;;6.93;5.70;;;;;;;16.32;100.00;99872.56;1690433;82;21036;-68
2021/06/03 07:34:03;;;;;;;6.77;5.53;;;;;;;16.27;100.00;99870.11;1689397;82;21833;-67
2021/06/03 07:36:32;;;;;;;3.75;2.62;;;;;;;16.24;100.00;99877.66;1690424;82;21213;-68
2021/06/03 07:39:00;;;;;;;4.00;2.40;;;;;;;16.22;100.00;99882.36;1684481;84;21558;-70
2021/06/03 07:41:29;;;;;;;3.53;1.70;;;;;;;16.13;100.00;99884.51;1690138;84;21579;-65
2021/06/03 07:43:56;;;;;;;3.77;1.97;;;;;;;15.97;100.00;99872.05;1687400;84;20996;-65
2021/06/03 07:46:24;;;;;;;2.80;1.63;;;;;;;15.95;100.00;99879.37;1689462;84;21596;-65
2021/06/03 07:48:51;;;;;;;3.90;1.90;;;;;;;15.98;100.00;99882.33;1689677;84;20983;-64
2021/06/03 07:51:17;;;;;;;2.43;1.10;;;;;;;16.05;100.00;99886.17;1688861;84;20904;-67
2021/06/03 07:53:44;;;;;;;2.77;1.43;;;;;;;16.07;100.00;99887.27;1688658;84;21067;-68
2021/06/03 07:56:10;;;;;;;2.00;1.20;;;;;;;16.10;100.00;99895.51;1680060;84;21091;-66
2021/06/03 07:58:37;;;;;;;3.33;1.50;;;;;;;16.17;100.00;99899.32;1643156;85;21168;-66
2021/06/03 08:01:04;;;;;;;2.13;1.40;;;;;;;16.27;100.00;99900.36;1671838;83;21098;-66
2021/06/03 08:03:31;;;;;;;3.73;2.20;;;;;;;16.37;100.00;99899.00;1641658;85;21185;-68
2021/06/03 08:05:57;;;;;;;3.43;1.40;;;;;;;16.45;100.00;99900.75;1673005;84;20925;-67
2021/06/03 08:08:24;;;;;;;2.30;1.37;;;;;;;16.49;100.00;99905.05;1671532;84;21580;-67
2021/06/03 08:10:51;;;;;;;2.57;1.33;;;;;;;16.42;100.00;99909.63;1648881;85;21232;-68
2021/06/03 08:13:18;;;;;;;6.57;2.00;;;;;;;16.34;100.00;99904.71;1671643;84;20911;-68
2021/06/03 08:15:45;;;;;;;2.20;1.47;;;;;;;16.30;100.00;99914.37;1690870;84;21026;-69
2021/06/03 08:18:14;;;;;;;4.57;1.87;;;;;;;16.22;100.00;99914.72;1675631;84;21604;-67
2021/06/03 08:20:48;;;;;;;2.33;1.30;;;;;;;16.23;100.00;99916.31;1641283;85;21080;-68
2021/06/03 08:23:17;;;;;;;2.00;1.20;;;;;;;16.19;100.00;99913.05;1666165;84;21470;-67
2021/06/03 08:25:45;;;;;;;3.73;1.60;;;;;;;16.01;100.00;99919.20;1641913;85;21751;-68
2021/06/03 08:28:12;;;;;;;2.20;1.40;;;;;;;15.86;100.00;99921.46;1637978;85;21166;-67
2021/06/03 08:30:39;;;;;;;5.23;1.73;;;;;;;15.81;100.00;99928.20;1694898;84;21051;-68
2021/06/03 08:33:06;;;;;;;3.97;1.80;;;;;;;15.89;100.00;99930.22;1696084;82;20957;-70
2021/06/03 08:35:33;;;;;;;5.00;1.83;;;;;;;15.98;100.00;99929.64;1662392;85;21177;-69
2021/06/03 08:38:04;;;;;;;3.70;2.00;;;;;;;16.12;100.00;99938.66;1639267;85;21117;-68
2021/06/03 08:40:33;;;;;;;3.73;2.07;;;;;;;16.16;100.00;99936.66;1667366;84;21063;-67
2021/06/03 08:43:01;;;;;;;4.27;1.80;;;;;;;16.10;100.00;99931.49;1645406;85;21054;-70
2021/06/03 08:45:30;;;;;;;3.40;2.00;;;;;;;16.01;100.00;99941.55;1692597;83;21024;-71
2021/06/03 08:47:57;;;;;;;5.73;2.07;;;;;;;16.04;100.00;99954.25;1682895;83;21155;-69
2021/06/03 08:50:27;;;;;;;4.07;1.80;;;;;;;16.01;100.00;99949.44;1666286;84;20963;-68
2021/06/03 08:52:55;;;;;;;3.73;1.70;;;;;;;15.93;100.00;99953.70;1646461;83;20992;-69
2021/06/03 08:58:11;;;;;;;2.90;1.70;;;;;;;15.83;100.00;99953.45;1693839;82;21013;-69
2021/06/03 09:00:39;;;;;;;4.53;1.70;;;;;;;15.67;100.00;99954.38;1700573;82;21138;-67
2021/06/03 09:03:07;;;;;;;2.80;1.80;;;;;;;15.57;100.00;99956.72;1689406;82;21056;-69
2021/06/03 09:05:34;;;;;;;3.83;2.00;;;;;;;15.56;100.00;99960.35;1691882;84;21132;-69
2021/06/03 09:08:25;;;;;;;4.60;2.17;;;;;;;15.54;100.00;99959.28;1690335;82;21056;-69
2021/06/03 09:11:01;;;;;;;3.27;2.02;;;;;;;15.57;100.00;99959.35;1678662;84;21094;-70
2021/06/03 09:13:41;;;;;;;5.47;2.17;;;;;;;15.65;100.00;99964.32;1687097;84;20932;-69
2021/06/03 09:16:23;;;;;;;4.23;2.23;;;;;;;15.85;100.00;99964.03;1689689;82;20967;-69
2021/06/03 09:18:53;;;;;;;4.40;2.30;;;;;;;15.98;100.00;99960.39;1688512;84;21078;-69
2021/06/03 09:21:27;;;;;;;4.72;2.60;;;;;;;16.15;100.00;99963.19;1686756;84;21050;-70
2021/06/03 09:24:03;;;;;;;5.17;2.77;;;;;;;16.16;100.00;99973.47;1687012;84;22105;-71
2021/06/03 09:26:35;;;;;;;3.83;2.53;;;;;;;16.24;100.00;99969.70;1682115;84;22567;-70
2021/06/03 09:29:04;;;;;;;4.37;2.67;;;;;;;16.26;100.00;99972.92;1683010;82;21084;-70
2021/06/03 09:31:35;;;;;;;4.23;2.40;;;;;;;16.28;100.00;99975.59;1684230;84;21083;-71
2021/06/03 09:34:13;;;;;;;4.55;2.80;;;;;;;16.24;100.00;99974.97;1689763;84;27333;-70
2021/06/03 09:36:46;;;;;;;7.10;3.10;;;;;;;16.15;100.00;99973.19;1686537;84;21070;-70
2021/06/03 09:39:44;;;;;;;3.80;2.90;;;;;;;16.14;100.00;99975.53;1687293;84;21143;-69
2021/06/03 09:42:18;;;;;;;4.33;3.10;;;;;;;16.05;100.00;99976.88;1689385;84;21065;-70
2021/06/03 09:44:55;;;;;;;5.10;2.90;;;;;;;15.96;100.00;99979.55;1689786;82;21000;-71
2021/06/03 09:47:24;;;;;;;7.67;3.20;;;;;;;15.88;100.00;99986.45;1687020;84;21011;-70
2021/06/03 09:49:58;;;;;;;4.53;3.40;;;;;;;15.73;100.00;99987.66;1687864;84;20971;-70
2021/06/03 09:52:29;;;;;;;4.63;3.57;;;;;;;15.62;100.00;99993.63;1686696;84;21098;-71
2021/06/03 09:55:00;;;;;;;10.43;3.87;;;;;;;15.54;100.00;100001.83;1688183;84;21079;-71
2021/06/03 09:57:35;;;;;;;5.70;3.90;;;;;;;15.43;100.00;99995.48;1683832;82;21002;-69
2021/06/03 10:00:16;;;;;;;8.60;4.20;;;;;;;15.31;100.00;100002.52;1690540;82;22521;-71
2021/06/03 10:02:44;;;;;;;6.15;3.72;;;;;;;15.15;100.00;100001.25;1672287;84;21150;-70
2021/06/03 10:05:17;;;;;;;6.97;3.80;;;;;;;15.01;100.00;100001.92;1687868;84;22119;-70
2021/06/03 10:08:00;;;;;;;5.57;3.87;;;;;;;14.98;100.00;100004.18;1692379;82;22134;-70
2021/06/03 10:10:30;;;;;;;5.27;3.37;;;;;;;14.83;100.00;100004.02;1691227;82;21010;-70
2021/06/03 10:12:58;;;;;;;5.23;3.50;;;;;;;14.73;100.00;100008.94;1690833;82;21082;-70
2021/06/03 10:15:30;;;;;;;8.27;3.80;;;;;;;14.71;100.00;100007.06;1688902;82;21097;-69
2021/06/03 10:18:06;;;;;;;9.13;4.63;;;;;;;14.72;100.00;100013.11;1687677;84;21598;-69
2021/06/03 10:20:45;;;;;;;4.70;2.90;;;;;;;14.80;100.00;100008.89;1685814;82;20937;-69
2021/06/03 10:23:20;;;;;;;6.20;3.30;;;;;;;14.93;100.00;100013.23;1685599;82;21608;-69
2021/06/03 10:25:53;;;;;;;5.40;3.10;;;;;;;14.97;100.00;100008.62;1683564;82;21513;-69
2021/06/03 10:28:21;;;;;;;6.30;3.33;;;;;;;15.12;100.00;100009.59;1687691;82;21007;-71
2021/06/03 10:30:55;;;;;;;5.50;2.80;;;;;;;15.21;100.00;100010.09;1686813;82;21149;-68
2021/06/03 10:33:25;;;;;;;5.40;2.83;;;;;;;15.20;100.00;100013.23;1688703;82;21556;-70
2021/06/03 10:35:57;;;;;;;8.28;3.58;;;;;;;15.23;100.00;100025.92;1691704;82;21125;-70
2021/06/03 10:38:24;;;;;;;6.53;3.70;;;;;;;15.13;100.00;100030.08;1689257;82;21304;-69
2021/06/03 10:40:54;;;;;;;6.40;3.30;;;;;;;15.06;100.00;100035.39;1690303;82;21597;-69
2021/06/03 10:43:21;;;;;;;5.10;3.13;;;;;;;15.04;100.00;100034.82;1687906;82;21106;-69
2021/06/03 10:45:48;;;;;;;6.40;3.00;;;;;;;15.10;100.00;100035.24;1690496;82;21675;-70
2021/06/03 10:48:15;;;;;;;5.53;3.93;;;;;;;15.15;100.00;100035.38;1688751;82;21147;-70
2021/06/03 10:50:46;;;;;;;6.63;3.10;;;;;;;15.22;100.00;100030.86;1692756;82;21117;-68
2021/06/03 10:53:16;;;;;;;4.20;3.10;;;;;;;15.16;100.00;100033.07;1688655;83;21003;-69
2021/06/03 10:55:46;;;;;;;4.27;2.80;;;;;;;15.13;100.00;100040.06;1690639;82;21772;-68
2021/06/03 10:58:14;;;;;;;4.87;3.13;;;;;;;15.04;100.00;100038.76;1692100;84;20963;-69
2021/06/03 11:00:43;;;;;;;5.30;2.67;;;;;;;14.98;100.00;100045.66;1687797;84;21141;-68
2021/06/03 11:03:17;;;;;;;5.70;2.67;;;;;;;14.97;100.00;100051.14;1663141;84;20920;-69
2021/06/03 11:05:46;;;;;;;4.77;2.00;;;;;;;15.02;100.00;100049.97;1692657;84;21141;-69
2021/06/03 11:08:32;;;;;;;6.13;2.40;;;;;;;15.02;100.00;100044.20;1687537;83;21187;-69
2021/06/03 11:11:17;;;;;;;4.23;2.27;;;;;;;14.93;100.00;100043.41;1683392;83;21019;-69
2021/06/03 11:13:53;;;;;;;4.20;2.10;;;;;;;14.92;100.00;100043.09;1690734;84;21011;-69
2021/06/03 11:16:22;;;;;;;3.37;2.10;;;;;;;14.86;100.00;100043.98;1685619;84;21126;-69
2021/06/03 11:18:58;;;;;;;3.37;1.87;;;;;;;14.84;100.00;100047.59;1684293;84;21022;-69
2021/06/03 11:21:37;;;;;;;4.13;1.87;;;;;;;14.78;100.00;100043.23;1686428;84;21617;-68
2021/06/03 11:24:31;;;;;;;3.30;1.57;;;;;;;14.75;100.00;100047.59;1692355;84;21259;-69
2021/06/03 11:27:02;;;;;;;3.13;2.17;;;;;;;14.75;100.00;100046.79;1691401;84;21335;-68
2021/06/03 11:29:41;;;;;;;3.07;1.83;;;;;;;14.57;100.00;100054.09;1692462;84;21011;-70
2021/06/03 11:32:15;;;;;;;9.27;2.67;;;;;;;14.53;100.00;100047.67;1688539;84;21317;-70
2021/06/03 11:34:45;;;;;;;4.60;2.27;;;;;;;14.59;100.00;100048.14;1688794;84;21083;-69
2021/06/03 11:37:21;;;;;;;2.97;1.90;;;;;;;14.55;100.00;100043.83;1692131;84;21463;-70
2021/06/03 11:40:01;;;;;;;5.43;2.23;;;;;;;14.61;100.00;100051.33;1691657;84;21314;-70
2021/06/03 11:42:52;;;;;;;4.50;2.17;;;;;;;14.65;100.00;100049.89;1688569;84;21074;-69
2021/06/03 11:45:45;;;;;;;3.90;2.58;;;;;;;14.69;100.00;100060.24;1687081;84;20971;-70